createdAt,value
2023-03-29T00:02:39.161Z,1.40
2023-03-29T00:05:15.361Z,1.27
2023-03-29T00:07:48.749Z,1.50
2023-03-29T00:10:19.115Z,1.20
2023-03-29T00:12:54.666Z,1.40
2023-03-29T00:15:26.362Z,1.40
2023-03-29T00:17:55.087Z,1.23
2023-03-29T00:20:33.480Z,1.52
2023-03-29T00:23:44.912Z,1.20
2023-03-29T00:26:15.841Z,1.38
2023-03-29T00:28:47.354Z,1.42
2023-03-29T00:31:19.507Z,1.52
2023-03-29T00:33:51.428Z,1.48
2023-03-29T00:36:25.315Z,1.20
2023-03-29T00:38:59.294Z,1.40
2023-03-29T00:41:33.494Z,1.23
2023-03-29T00:44:07.134Z,1.50
2023-03-29T00:46:37.416Z,1.40
2023-03-29T00:49:15.000Z,1.60
2023-03-29T00:51:47.064Z,1.40
2023-03-29T00:54:21.928Z,1.30
2023-03-29T00:56:54.399Z,1.50
2023-03-29T00:59:33.427Z,1.23
2023-03-29T01:02:10.954Z,1.40
2023-03-29T01:04:52.915Z,1.40
2023-03-29T01:07:36.757Z,1.30
2023-03-29T01:10:25.134Z,1.40
2023-03-29T01:13:08.660Z,1.40
2023-03-29T01:15:45.080Z,1.45
2023-03-29T01:18:15.647Z,1.50
2023-03-29T01:21:04.024Z,1.67
2023-03-29T01:23:54.841Z,1.48
2023-03-29T01:26:41.370Z,1.23
2023-03-29T01:29:19.509Z,1.40
2023-03-29T01:32:00.721Z,1.27
2023-03-29T01:34:39.327Z,1.42
2023-03-29T01:37:27.523Z,1.20
2023-03-29T01:40:06.568Z,1.40
2023-03-29T01:43:05.290Z,1.50
2023-03-29T01:45:43.377Z,1.40
2023-03-29T01:48:35.004Z,1.48
2023-03-29T01:51:17.363Z,1.10
2023-03-29T01:54:13.015Z,1.23
2023-03-29T01:56:50.662Z,1.15
2023-03-29T02:00:27.217Z,1.10
2023-03-29T02:03:31.318Z,1.20
2023-03-29T02:06:37.973Z,1.40
2023-03-29T02:09:19.731Z,1.20
2023-03-29T02:11:53.592Z,1.30
2023-03-29T02:14:25.845Z,1.50
2023-03-29T02:16:55.943Z,1.35
2023-03-29T02:19:34.314Z,1.60
2023-03-29T02:22:10.978Z,1.45
2023-03-29T02:24:49.374Z,1.60
2023-03-29T02:27:18.999Z,1.48
2023-03-29T02:29:50.301Z,1.45
2023-03-29T02:32:31.006Z,1.75
2023-03-29T02:35:22.737Z,1.40
2023-03-29T02:38:00.750Z,1.50
2023-03-29T02:40:35.400Z,1.80
2023-03-29T02:43:10.808Z,1.52
2023-03-29T02:48:16.795Z,1.23
2023-03-29T02:50:50.552Z,1.48
2023-03-29T02:53:29.787Z,1.30
2023-03-29T02:56:05.617Z,1.40
2023-03-29T02:58:38.653Z,1.33
2023-03-29T03:01:11.273Z,1.60
2023-03-29T03:03:42.398Z,1.80
2023-03-29T03:06:11.234Z,1.67
2023-03-29T03:08:41.757Z,1.55
2023-03-29T03:11:11.582Z,1.63
2023-03-29T03:13:47.112Z,1.80
2023-03-29T03:16:21.013Z,2.20
2023-03-29T03:18:52.156Z,2.20
2023-03-29T03:21:25.127Z,2.00
2023-03-29T03:23:56.790Z,2.00
2023-03-29T03:26:33.062Z,1.90
2023-03-29T03:29:03.773Z,1.90
2023-03-29T03:32:01.487Z,1.85
2023-03-29T03:37:33.316Z,1.80
2023-03-29T03:40:05.050Z,1.10
2023-03-29T03:42:34.956Z,1.50
2023-03-29T03:45:06.302Z,1.48
2023-03-29T03:47:52.932Z,1.40
2023-03-29T03:50:34.832Z,1.50
2023-03-29T03:53:07.737Z,1.40
2023-03-29T03:56:10.339Z,1.23
2023-03-29T03:59:01.452Z,1.42
2023-03-29T04:01:44.035Z,1.48
2023-03-29T04:04:22.623Z,1.38
2023-03-29T04:07:18.112Z,1.42
2023-03-29T04:10:34.547Z,1.40
2023-03-29T04:13:18.806Z,1.45
2023-03-29T04:16:29.556Z,1.30
2023-03-29T04:19:08.784Z,1.40
2023-03-29T04:21:39.486Z,1.50
2023-03-29T04:24:10.551Z,1.35
2023-03-29T04:26:43.172Z,1.30
2023-03-29T04:29:32.686Z,1.45
2023-03-29T04:32:15.154Z,1.60
2023-03-29T04:34:51.391Z,1.50
2023-03-29T04:37:25.175Z,1.33
2023-03-29T04:40:02.065Z,1.50
2023-03-29T04:42:39.200Z,1.40
2023-03-29T04:45:10.468Z,1.50
2023-03-29T04:48:03.315Z,1.40
2023-03-29T04:50:37.480Z,1.38
2023-03-29T04:53:10.419Z,1.42
2023-03-29T04:55:40.965Z,1.70
2023-03-29T04:58:14.897Z,1.50
2023-03-29T05:00:45.196Z,1.55
2023-03-29T05:03:26.623Z,1.90
2023-03-29T05:06:08.859Z,1.90
2023-03-29T05:08:42.106Z,1.90
2023-03-29T05:11:37.314Z,1.70
2023-03-29T05:14:10.157Z,1.73
2023-03-29T05:16:43.030Z,1.50
2023-03-29T05:19:14.266Z,1.80
2023-03-29T05:21:51.503Z,1.80
2023-03-29T05:24:27.006Z,1.90
2023-03-29T05:27:10.693Z,1.80
2023-03-29T05:29:41.327Z,1.63
2023-03-29T05:32:41.512Z,1.45
2023-03-29T05:35:13.381Z,1.60
2023-03-29T05:37:43.408Z,1.33
2023-03-29T05:40:14.100Z,1.70
2023-03-29T05:43:03.524Z,1.60
2023-03-29T05:45:34.605Z,1.60
2023-03-29T05:48:10.555Z,1.75
2023-03-29T05:50:47.407Z,1.75
2023-03-29T05:53:19.457Z,1.65
2023-03-29T05:55:50.925Z,1.60
2023-03-29T05:58:22.223Z,1.90
2023-03-29T06:00:53.142Z,1.90
2023-03-29T06:03:43.104Z,1.60
2023-03-29T06:06:17.926Z,1.83
2023-03-29T06:08:49.909Z,1.70
2023-03-29T06:11:41.420Z,1.70
2023-03-29T06:14:41.737Z,1.52
2023-03-29T06:17:35.282Z,1.55
2023-03-29T06:20:11.441Z,1.60
2023-03-29T06:22:48.825Z,1.83
2023-03-29T06:25:21.295Z,1.23
2023-03-29T06:27:54.525Z,1.88
2023-03-29T06:30:23.690Z,1.70
2023-03-29T06:33:03.378Z,1.70
2023-03-29T06:35:57.698Z,1.60
2023-03-29T06:38:33.201Z,1.80
2023-03-29T06:41:20.708Z,1.38
2023-03-29T06:44:13.533Z,1.65
2023-03-29T06:47:05.847Z,1.77
2023-03-29T06:49:35.582Z,1.52
2023-03-29T06:52:41.626Z,1.40
2023-03-29T06:55:13.814Z,1.50
2023-03-29T06:57:43.645Z,1.60
2023-03-29T07:00:30.459Z,1.80
2023-03-29T07:03:33.985Z,1.65
2023-03-29T07:06:13.550Z,1.70
2023-03-29T07:08:50.158Z,1.67
2023-03-29T07:11:34.639Z,1.80
2023-03-29T07:14:16.990Z,1.90
2023-03-29T07:16:47.839Z,2.10
2023-03-29T07:19:23.277Z,2.13
2023-03-29T07:22:01.719Z,2.10
2023-03-29T07:24:51.563Z,2.28
2023-03-29T07:27:24.819Z,2.20
2023-03-29T07:29:55.205Z,2.10
2023-03-29T07:32:37.448Z,2.30
2023-03-29T07:35:27.356Z,2.00
2023-03-29T07:38:07.551Z,2.15
2023-03-29T07:40:41.996Z,2.00
2023-03-29T07:43:33.024Z,2.25
2023-03-29T07:46:06.868Z,2.08
2023-03-29T07:48:41.549Z,2.13
2023-03-29T07:51:13.677Z,2.08
2023-03-29T07:53:46.594Z,2.10
2023-03-29T07:56:35.272Z,2.10
2023-03-29T07:59:26.335Z,2.20
2023-03-29T08:02:11.308Z,1.95
2023-03-29T08:04:49.045Z,2.10
2023-03-29T08:07:26.486Z,2.03
2023-03-29T08:13:10.897Z,1.83
2023-03-29T08:16:10.200Z,1.80
2023-03-29T08:18:49.212Z,1.92
2023-03-29T08:21:21.577Z,2.30
2023-03-29T08:23:53.334Z,2.08
2023-03-29T08:26:42.643Z,2.00
2023-03-29T08:29:13.708Z,2.22
2023-03-29T08:31:45.458Z,1.70
2023-03-29T08:34:15.049Z,1.75
2023-03-29T08:36:49.254Z,1.73
2023-03-29T08:39:42.776Z,1.80
2023-03-29T08:42:51.498Z,1.80
2023-03-29T08:45:50.806Z,1.80
2023-03-29T08:48:31.270Z,2.00
2023-03-29T08:51:14.049Z,1.85
2023-03-29T08:53:53.664Z,2.20
2023-03-29T08:56:46.890Z,2.00
2023-03-29T08:59:41.238Z,1.97
2023-03-29T09:02:23.506Z,1.85
2023-03-29T09:05:19.196Z,1.80
2023-03-29T09:08:18.697Z,1.70
2023-03-29T09:11:01.452Z,1.90
2023-03-29T09:13:41.032Z,2.08
2023-03-29T09:16:39.633Z,1.90
2023-03-29T09:19:42.225Z,2.13
2023-03-29T09:22:21.416Z,1.83
2023-03-29T09:25:27.830Z,1.80
2023-03-29T09:28:05.594Z,1.73
2023-03-29T09:30:55.115Z,1.90
2023-03-29T09:33:38.451Z,1.67
2023-03-29T09:36:26.717Z,1.70
2023-03-29T09:39:01.489Z,1.90
2023-03-29T09:41:54.396Z,1.70
2023-03-29T09:44:31.134Z,1.52
2023-03-29T09:47:24.993Z,1.67
2023-03-29T09:50:01.738Z,1.90
2023-03-29T09:52:33.077Z,1.85
2023-03-29T09:55:19.126Z,1.83
2023-03-29T09:58:03.617Z,1.67
2023-03-29T10:00:42.914Z,1.80
2023-03-29T10:03:25.053Z,1.75
2023-03-29T10:06:06.570Z,1.88
2023-03-29T10:08:57.893Z,1.80
2023-03-29T10:11:59.244Z,1.80
2023-03-29T10:14:36.095Z,1.52
2023-03-29T10:17:17.316Z,1.77
2023-03-29T10:19:57.377Z,1.60
2023-03-29T10:22:38.726Z,1.70
2023-03-29T10:25:19.024Z,1.70
2023-03-29T10:27:49.590Z,2.03
2023-03-29T10:30:26.839Z,1.80
2023-03-29T10:33:01.412Z,1.63
2023-03-29T10:35:43.295Z,1.70
2023-03-29T10:38:17.678Z,1.63
2023-03-29T10:40:55.385Z,1.58
2023-03-29T10:43:44.047Z,1.75
2023-03-29T10:46:28.057Z,1.52
2023-03-29T10:49:10.837Z,1.80
2023-03-29T10:55:07.137Z,1.80
2023-03-29T10:57:43.392Z,1.80
2023-03-29T11:00:22.907Z,1.80
2023-03-29T11:03:26.816Z,1.95
2023-03-29T11:06:09.209Z,1.63
2023-03-29T11:08:54.947Z,2.13
2023-03-29T11:11:45.387Z,1.92
2023-03-29T11:14:43.374Z,1.75
2023-03-29T11:17:35.804Z,1.90
2023-03-29T11:20:25.329Z,1.63
2023-03-29T11:23:01.603Z,1.80
2023-03-29T11:25:55.242Z,1.90
2023-03-29T11:28:39.471Z,1.70
2023-03-29T11:31:30.021Z,1.80
2023-03-29T11:34:27.558Z,1.80
2023-03-29T11:37:25.271Z,1.73
2023-03-29T11:40:23.593Z,1.70
2023-03-29T11:42:57.776Z,1.90
2023-03-29T11:45:43.170Z,1.90
2023-03-29T11:48:23.061Z,1.88
2023-03-29T11:51:51.336Z,1.80
2023-03-29T11:54:34.243Z,1.80
2023-03-29T11:57:43.182Z,1.70
2023-03-29T12:00:22.293Z,1.73
2023-03-29T12:02:54.620Z,1.83
2023-03-29T12:05:34.254Z,1.70
2023-03-29T12:08:27.138Z,1.73
2023-03-29T12:11:31.798Z,1.90
2023-03-29T12:14:41.203Z,1.70
2023-03-29T12:17:20.787Z,1.70
2023-03-29T12:20:14.500Z,1.90
2023-03-29T12:22:49.973Z,1.70
2023-03-29T12:29:38.351Z,1.73
2023-03-29T12:32:27.407Z,1.63
2023-03-29T12:35:26.406Z,2.28
2023-03-29T12:38:16.856Z,2.08
2023-03-29T12:41:19.569Z,2.00
2023-03-29T12:44:43.072Z,1.90
2023-03-29T12:47:27.125Z,1.90
2023-03-29T12:50:01.397Z,2.10
2023-03-29T12:52:38.041Z,2.10
2023-03-29T12:55:30.023Z,2.17
2023-03-29T12:58:12.996Z,1.98
2023-03-29T13:00:42.881Z,2.10
2023-03-29T13:03:46.956Z,2.10
2023-03-29T13:06:47.288Z,2.20
2023-03-29T13:09:31.584Z,2.15
2023-03-29T13:12:12.042Z,2.00
2023-03-29T13:14:45.977Z,2.05
2023-03-29T13:17:33.117Z,2.00
2023-03-29T13:20:05.018Z,2.10
2023-03-29T13:23:07.757Z,2.10
2023-03-29T13:25:51.954Z,2.00
2023-03-29T13:28:30.222Z,1.90
2023-03-29T13:31:09.085Z,2.20
2023-03-29T13:33:43.651Z,2.00
2023-03-29T13:36:37.374Z,2.00
2023-03-29T13:39:30.632Z,2.00
2023-03-29T13:42:21.004Z,1.95
2023-03-29T13:44:51.090Z,2.10
2023-03-29T13:47:20.907Z,2.20
2023-03-29T13:50:02.676Z,1.98
2023-03-29T13:52:53.905Z,2.00
2023-03-29T13:55:38.790Z,2.20
2023-03-29T13:58:34.956Z,2.10
2023-03-29T14:02:13.859Z,2.23
2023-03-29T14:04:50.184Z,2.00
2023-03-29T14:07:33.917Z,2.00
2023-03-29T14:10:05.002Z,2.60
2023-03-29T14:12:43.134Z,1.98
2023-03-29T14:15:28.031Z,2.22
2023-03-29T14:18:03.618Z,1.90
2023-03-29T14:20:35.666Z,2.08
2023-03-29T14:23:16.129Z,2.03
2023-03-29T14:25:50.845Z,2.08
2023-03-29T14:28:45.873Z,2.10
2023-03-29T14:31:23.114Z,1.88
2023-03-29T14:33:57.049Z,2.20
2023-03-29T14:36:35.630Z,2.28
2023-03-29T14:39:24.063Z,2.20
2023-03-29T14:42:17.612Z,2.40
2023-03-29T14:44:50.511Z,2.00
2023-03-29T14:47:31.464Z,2.30
2023-03-29T14:50:05.913Z,2.28
2023-03-29T14:52:38.293Z,2.00
2023-03-29T14:55:10.700Z,2.15
2023-03-29T14:58:03.270Z,2.15
2023-03-29T15:00:50.913Z,2.33
2023-03-29T15:03:23.232Z,2.00
2023-03-29T15:05:59.276Z,2.10
2023-03-29T15:08:38.564Z,2.25
2023-03-29T15:11:33.473Z,2.15
2023-03-29T15:14:21.217Z,2.13
2023-03-29T15:20:08.541Z,1.92
2023-03-29T15:22:23.609Z,2.08
2023-03-29T15:24:54.840Z,2.13
2023-03-29T15:27:23.946Z,2.38
2023-03-29T15:30:03.329Z,2.33
2023-03-29T15:32:48.123Z,2.17
2023-03-29T15:41:49.936Z,2.10
2023-03-29T15:44:27.171Z,2.25
2023-03-29T15:47:31.926Z,2.00
2023-03-29T15:50:07.996Z,2.13
2023-03-29T15:53:34.686Z,2.20
2023-03-29T15:57:07.564Z,2.10
2023-03-29T16:00:02.132Z,2.40
2023-03-29T16:04:46.009Z,2.13
2023-03-29T16:13:41.266Z,2.28
2023-03-29T16:17:16.835Z,2.05
2023-03-29T16:20:06.376Z,2.17
2023-03-29T16:22:35.274Z,2.30
2023-03-29T16:25:19.400Z,2.10
2023-03-29T16:28:22.097Z,2.15
2023-03-29T16:30:52.117Z,2.45
2023-03-29T16:34:43.157Z,2.40
2023-03-29T16:41:55.784Z,2.30
2023-03-29T16:50:04.303Z,2.25
2023-03-29T16:54:18.466Z,2.30
2023-03-29T17:01:41.940Z,1.98
2023-03-29T17:04:22.804Z,2.15
2023-03-29T17:06:54.275Z,2.70
2023-03-29T17:09:31.354Z,2.22
2023-03-29T17:12:38.747Z,2.50
2023-03-29T17:16:25.884Z,2.50
2023-03-29T17:22:13.668Z,2.60
2023-03-29T17:24:53.268Z,3.33
2023-03-29T17:27:25.446Z,2.60
2023-03-29T17:29:57.736Z,2.85
2023-03-29T17:32:37.115Z,2.80
2023-03-29T17:35:20.741Z,2.70
2023-03-29T17:37:57.006Z,2.58
2023-03-29T17:40:35.354Z,2.47
2023-03-29T17:43:06.191Z,2.33
2023-03-29T17:45:40.281Z,2.20
2023-03-29T17:48:10.213Z,2.30
2023-03-29T17:50:43.415Z,2.65
2023-03-29T17:53:15.507Z,2.55
2023-03-29T17:55:46.448Z,2.50
2023-03-29T17:58:19.373Z,2.50
2023-03-29T18:00:54.241Z,2.53
2023-03-29T18:03:31.392Z,2.10
2023-03-29T18:06:08.992Z,2.03
2023-03-29T18:08:43.527Z,2.08
2023-03-29T18:11:46.520Z,2.03
2023-03-29T18:14:15.431Z,2.00
2023-03-29T18:16:48.643Z,2.15
2023-03-29T18:19:21.587Z,2.05
2023-03-29T18:21:52.385Z,2.03
2023-03-29T18:24:23.876Z,2.42
2023-03-29T18:26:56.914Z,2.13
2023-03-29T18:29:33.037Z,2.22
2023-03-29T18:32:06.922Z,2.20
2023-03-29T18:34:36.354Z,2.05
2023-03-29T18:38:12.447Z,2.17
2023-03-29T18:41:19.425Z,2.15
2023-03-29T18:43:51.409Z,2.50
2023-03-29T18:49:34.347Z,2.67
2023-03-29T18:52:54.666Z,2.30
2023-03-29T18:55:33.891Z,2.40
2023-03-29T19:08:47.893Z,2.17
2023-03-29T19:16:46.458Z,2.10
2023-03-29T19:26:19.311Z,2.15
2023-03-29T19:28:49.081Z,2.15
2023-03-29T19:31:22.288Z,2.17
2023-03-29T19:33:51.515Z,2.08
2023-03-29T19:36:22.854Z,2.20
2023-03-29T19:38:57.253Z,2.53
2023-03-29T19:41:35.743Z,2.60
2023-03-29T19:44:11.277Z,2.50
2023-03-29T19:47:54.314Z,2.70
2023-03-29T19:50:25.627Z,2.00
2023-03-29T19:52:59.135Z,2.30
2023-03-29T19:55:27.831Z,2.13
2023-03-29T19:57:57.712Z,2.10
2023-03-29T20:00:27.938Z,2.10
2023-03-29T20:02:57.939Z,2.20
2023-03-29T20:05:27.551Z,2.08
2023-03-29T20:07:57.907Z,2.03
2023-03-29T20:10:27.768Z,2.47
2023-03-29T20:12:57.823Z,1.92
2023-03-29T20:15:28.928Z,2.10
2023-03-29T20:18:01.461Z,2.05
2023-03-29T20:24:15.573Z,1.95
2023-03-29T20:26:45.168Z,1.90
2023-03-29T20:29:15.803Z,2.20
2023-03-29T20:31:46.561Z,2.00
2023-03-29T20:34:15.284Z,2.10
2023-03-29T20:36:45.029Z,1.90
2023-03-29T20:39:14.437Z,2.03
2023-03-29T20:41:48.438Z,2.13
2023-03-29T20:44:19.080Z,2.15
2023-03-29T20:46:54.829Z,1.90
2023-03-29T20:49:27.136Z,1.92
2023-03-29T20:55:24.407Z,2.00
2023-03-29T20:57:55.270Z,2.15
2023-03-29T21:00:26.244Z,2.00
2023-03-29T21:02:57.659Z,2.00
2023-03-29T21:05:33.300Z,2.03
2023-03-29T21:08:03.413Z,2.05
2023-03-29T21:10:33.878Z,1.90
2023-03-29T21:17:10.866Z,2.10
2023-03-29T21:20:15.824Z,2.00
2023-03-29T21:22:45.554Z,2.15
2023-03-29T21:25:17.215Z,1.90
2023-03-29T21:27:47.102Z,1.70
2023-03-29T21:30:15.905Z,2.10
2023-03-29T21:32:50.187Z,2.00
2023-03-29T21:35:20.074Z,2.10
2023-03-29T21:37:49.571Z,2.08
2023-03-29T21:40:21.101Z,1.80
2023-03-29T21:43:07.644Z,2.05
2023-03-29T21:45:38.439Z,2.00
2023-03-29T21:48:08.033Z,1.63
2023-03-29T21:50:37.243Z,1.88
2023-03-29T21:53:05.568Z,2.30
2023-03-29T21:55:38.921Z,2.05
2023-03-29T22:00:37.559Z,2.08
2023-03-29T22:03:06.758Z,1.90
2023-03-29T22:05:35.581Z,2.00
2023-03-29T22:08:10.794Z,2.00
2023-03-29T22:10:42.901Z,1.95
2023-03-29T22:13:11.462Z,2.00
2023-03-29T22:15:48.389Z,2.03
2023-03-29T22:18:17.394Z,2.00
2023-03-29T22:20:46.461Z,1.70
2023-03-29T22:23:15.912Z,2.42
2023-03-29T22:25:45.375Z,2.28
2023-03-29T22:28:14.622Z,1.80
2023-03-29T22:30:43.462Z,1.70
2023-03-29T22:33:13.095Z,1.90
2023-03-29T22:35:42.453Z,1.90
2023-03-29T22:38:11.175Z,1.77
2023-03-29T22:40:42.777Z,1.90
2023-03-29T22:43:11.601Z,2.10
2023-03-29T22:45:41.812Z,1.70
2023-03-29T22:48:11.441Z,1.90
2023-03-29T22:50:43.345Z,1.60
2023-03-29T22:53:12.319Z,1.80
2023-03-29T22:55:43.019Z,1.70
2023-03-29T22:58:11.340Z,1.85
2023-03-29T23:00:41.557Z,1.90
2023-03-29T23:03:10.999Z,1.83
2023-03-29T23:05:39.512Z,1.90
2023-03-29T23:08:13.991Z,1.65
2023-03-29T23:10:55.105Z,2.10
2023-03-29T23:13:37.252Z,1.77
2023-03-29T23:16:17.014Z,2.00
2023-03-29T23:18:47.927Z,2.00
2023-03-29T23:21:22.736Z,1.90
2023-03-29T23:23:54.315Z,2.13
2023-03-29T23:26:24.416Z,1.80
2023-03-29T23:32:45.186Z,1.80
2023-03-29T23:35:17.570Z,1.77
2023-03-29T23:37:46.708Z,1.92
2023-03-29T23:40:17.732Z,2.10
2023-03-29T23:42:49.475Z,1.92
2023-03-29T23:45:33.466Z,1.90
2023-03-29T23:48:03.513Z,1.77
2023-03-29T23:50:37.072Z,1.77
2023-03-29T23:53:31.380Z,1.60
2023-03-29T23:56:18.392Z,1.70
2023-03-29T23:58:47.440Z,1.80
